Time;durP1;ratioP1;P1;durP2;ratioP2;P2;SDS_P1;SDS_P2;PMS_P1;PMS_P2;Temp;Humidity;BMP_temperature;BMP_pressure;BME280_temperature;BME280_humidity;BME280_pressure;Samples;Min_cycle;Max_cycle;Signal;HPM_P1;HPM_P2
2023/03/05 00:02:16;;;;;;;26.17;20.40;;;6.80;90.00;;;;;;10521933;28;20196;-78
2023/03/05 00:07:18;;;;;;;25.87;19.13;;;6.70;90.10;;;;;;10516329;28;20216;-79
2023/03/05 00:12:20;;;;;;;22.97;19.17;;;6.70;90.00;;;;;;10524745;28;20678;-78
2023/03/05 00:17:23;;;;;;;22.07;18.03;;;6.70;90.20;;;;;;10557291;28;20219;-79
2023/03/05 00:22:25;;;;;;;24.60;19.47;;;6.60;90.40;;;;;;10565786;28;20230;-78
2023/03/05 00:27:27;;;;;;;25.50;20.43;;;6.60;90.70;;;;;;10558091;28;20587;-79
2023/03/05 00:32:31;;;;;;;24.30;20.07;;;6.60;90.60;;;;;;10540495;28;20219;-80
2023/03/05 00:37:33;;;;;;;22.13;19.30;;;6.60;90.70;;;;;;10528937;28;20314;-79
2023/03/05 00:42:37;;;;;;;27.33;18.67;;;6.70;90.90;;;;;;10543108;28;20646;-79
2023/03/05 00:47:40;;;;;;;23.90;19.40;;;6.70;91.00;;;;;;10524967;28;20212;-78
2023/03/05 00:52:42;;;;;;;23.23;18.23;;;6.70;90.80;;;;;;10563774;28;20579;-79
2023/03/05 00:57:45;;;;;;;25.10;17.93;;;6.70;91.00;;;;;;10523905;28;20244;-79
2023/03/05 01:02:48;;;;;;;29.93;19.00;;;6.70;90.70;;;;;;10523201;28;20195;-79
2023/03/05 01:07:52;;;;;;;22.70;17.67;;;6.80;90.80;;;;;;10522910;28;20216;-78
2023/03/05 01:12:55;;;;;;;23.00;17.77;;;6.70;90.60;;;;;;10528177;28;20240;-79
2023/03/05 01:17:58;;;;;;;21.23;17.33;;;6.70;91.10;;;;;;10547327;28;20273;-79
2023/03/05 01:23:00;;;;;;;24.00;19.30;;;6.70;91.20;;;;;;10553396;28;20266;-78
2023/03/05 01:28:03;;;;;;;21.37;17.37;;;6.70;90.90;;;;;;10569271;28;20300;-79
2023/03/05 01:33:06;;;;;;;26.00;17.70;;;6.70;91.00;;;;;;10547642;28;20274;-79
2023/03/05 01:38:08;;;;;;;20.67;16.47;;;6.80;91.20;;;;;;10529640;28;20225;-79
2023/03/05 01:43:23;;;;;;;24.50;17.17;;;6.80;90.70;;;;;;10526777;28;20192;-80
2023/03/05 01:48:27;;;;;;;26.87;18.00;;;6.80;91.00;;;;;;10529847;28;20317;-80
2023/03/05 01:53:29;;;;;;;19.73;17.10;;;6.80;91.10;;;;;;10543171;28;20302;-79
2023/03/05 01:58:32;;;;;;;28.73;19.20;;;6.80;91.10;;;;;;10544803;28;20223;-79
2023/03/05 02:03:37;;;;;;;23.90;18.13;;;6.90;91.20;;;;;;10529521;28;20602;-80
2023/03/05 02:08:39;;;;;;;25.37;19.37;;;6.90;91.10;;;;;;10549142;28;20594;-80
2023/03/05 02:13:41;;;;;;;27.33;19.67;;;6.90;90.80;;;;;;10546204;28;20223;-80
2023/03/05 02:18:45;;;;;;;23.27;17.70;;;6.90;90.80;;;;;;10550142;28;20212;-79
2023/03/05 02:23:48;;;;;;;25.07;17.77;;;7.00;91.20;;;;;;10580248;28;20259;-80
2023/03/05 02:28:53;;;;;;;28.03;18.13;;;7.00;91.00;;;;;;10570400;28;20196;-79
2023/03/05 02:33:56;;;;;;;24.10;18.37;;;7.00;91.30;;;;;;10521499;28;20625;-79
2023/03/05 02:39:00;;;;;;;24.23;16.87;;;7.00;91.80;;;;;;10531229;28;20196;-78
2023/03/05 02:44:02;;;;;;;24.40;18.33;;;7.00;91.80;;;;;;10580820;28;20207;-79
2023/03/05 02:49:04;;;;;;;21.93;16.73;;;7.00;92.00;;;;;;10552607;28;20203;-78
2023/03/05 02:54:10;;;;;;;23.40;17.03;;;7.10;91.80;;;;;;10535531;28;20222;-79
2023/03/05 02:59:12;;;;;;;22.07;17.17;;;7.00;92.20;;;;;;10562677;28;20296;-79
2023/03/05 03:04:15;;;;;;;26.10;16.93;;;7.00;92.40;;;;;;10581673;28;20223;-78
2023/03/05 03:09:18;;;;;;;22.07;16.60;;;7.10;92.20;;;;;;10570088;28;20203;-78
2023/03/05 03:14:21;;;;;;;23.20;17.10;;;7.10;91.80;;;;;;10523218;28;20239;-78
2023/03/05 03:19:23;;;;;;;21.47;16.50;;;7.10;92.50;;;;;;10559611;28;20240;-78
2023/03/05 03:24:26;;;;;;;19.80;15.33;;;7.10;92.60;;;;;;10581003;28;20244;-79
2023/03/05 03:29:29;;;;;;;19.20;14.60;;;7.00;92.70;;;;;;10552283;28;20218;-78
2023/03/05 03:34:31;;;;;;;22.43;15.30;;;7.00;93.10;;;;;;10542890;28;20219;-78
2023/03/05 03:39:34;;;;;;;22.00;16.20;;;7.10;93.20;;;;;;10525733;28;20278;-79
2023/03/05 03:44:37;;;;;;;21.60;15.77;;;7.00;93.10;;;;;;10544136;28;20276;-79
2023/03/05 03:49:39;;;;;;;19.33;15.43;;;7.00;93.80;;;;;;10537564;28;20213;-79
2023/03/05 03:54:42;;;;;;;21.50;16.07;;;7.10;93.60;;;;;;10586714;28;20242;-79
2023/03/05 03:59:44;;;;;;;24.43;16.20;;;7.10;93.80;;;;;;10555490;28;20280;-80
2023/03/05 04:04:47;;;;;;;19.50;15.17;;;7.10;93.50;;;;;;10512135;28;20259;-81
2023/03/05 04:09:50;;;;;;;24.73;15.47;;;7.10;93.60;;;;;;10544507;28;20218;-80
2023/03/05 04:14:53;;;;;;;30.40;16.20;;;7.00;93.80;;;;;;10527561;28;20307;-80
2023/03/05 04:19:54;;;;;;;21.40;15.90;;;7.10;93.40;;;;;;10528831;28;20190;-79
2023/03/05 04:24:58;;;;;;;20.03;14.23;;;7.10;93.50;;;;;;10529928;28;20240;-79
2023/03/05 04:30:00;;;;;;;17.60;14.60;;;7.10;93.60;;;;;;10556307;28;20215;-79
2023/03/05 04:35:09;;;;;;;19.97;15.20;;;7.00;93.50;;;;;;10560072;28;20257;-79
2023/03/05 04:40:13;;;;;;;21.57;15.67;;;7.00;92.90;;;;;;10573225;28;20579;-79
2023/03/05 04:45:16;;;;;;;20.60;14.63;;;7.00;93.10;;;;;;10549834;28;20612;-79
2023/03/05 04:50:18;;;;;;;20.97;16.20;;;6.90;93.20;;;;;;10563031;28;20233;-79
2023/03/05 04:55:23;;;;;;;20.57;15.30;;;6.90;93.40;;;;;;10571346;28;20318;-79
2023/03/05 05:00:27;;;;;;;19.10;14.93;;;6.90;93.30;;;;;;10528804;28;20185;-79
2023/03/05 05:05:29;;;;;;;22.23;16.30;;;6.90;93.10;;;;;;10532822;28;20751;-80
2023/03/05 05:10:32;;;;;;;19.47;15.23;;;6.90;93.30;;;;;;10593573;28;20257;-80
2023/03/05 05:15:35;;;;;;;23.30;15.70;;;6.90;93.00;;;;;;10560537;28;20237;-80
2023/03/05 05:20:38;;;;;;;23.97;16.57;;;6.90;93.10;;;;;;10582946;28;20572;-79
2023/03/05 05:25:43;;;;;;;19.33;14.50;;;7.00;93.10;;;;;;10576311;28;20212;-78
2023/03/05 05:30:50;;;;;;;18.17;15.20;;;6.80;93.30;;;;;;10579324;28;20589;-79
2023/03/05 05:35:54;;;;;;;21.87;15.77;;;6.90;93.00;;;;;;10517524;28;20220;-78
2023/03/05 05:41:04;;;;;;;22.33;16.90;;;6.90;93.00;;;;;;10561858;28;20224;-79
2023/03/05 05:46:08;;;;;;;21.53;16.37;;;6.80;93.50;;;;;;10546224;28;20347;-78
2023/03/05 05:51:13;;;;;;;25.73;17.90;;;6.90;93.30;;;;;;10531576;28;20266;-79
2023/03/05 05:56:17;;;;;;;22.30;16.23;;;6.90;93.20;;;;;;10562026;28;20215;-78
2023/03/05 06:01:22;;;;;;;22.07;17.73;;;6.90;92.90;;;;;;10546794;28;20273;-78
2023/03/05 06:06:25;;;;;;;22.20;17.07;;;7.00;92.90;;;;;;10545649;28;20588;-78
2023/03/05 06:11:29;;;;;;;23.23;16.87;;;7.00;92.70;;;;;;10529429;28;20250;-79
2023/03/05 06:16:31;;;;;;;23.30;18.00;;;7.00;92.70;;;;;;10529148;28;20217;-79
2023/03/05 06:21:33;;;;;;;30.00;19.50;;;7.00;92.40;;;;;;10554496;28;20188;-79
2023/03/05 06:26:37;;;;;;;22.00;17.63;;;7.00;92.70;;;;;;10565222;28;20680;-78
2023/03/05 06:31:41;;;;;;;22.97;17.73;;;7.10;92.70;;;;;;10561114;28;20217;-78
2023/03/05 06:36:43;;;;;;;22.33;17.93;;;7.10;92.70;;;;;;10560027;28;20272;-79
2023/03/05 06:41:46;;;;;;;22.60;18.27;;;7.20;92.80;;;;;;10527513;28;20669;-79
2023/03/05 06:46:48;;;;;;;24.97;19.03;;;7.20;92.70;;;;;;10550101;28;20231;-79
2023/03/05 06:51:50;;;;;;;21.23;17.87;;;7.20;92.40;;;;;;10553203;28;20692;-79
2023/03/05 06:56:54;;;;;;;25.10;18.53;;;7.20;92.30;;;;;;10548567;28;20793;-79
2023/03/05 07:01:56;;;;;;;20.70;17.00;;;7.30;92.20;;;;;;10532339;28;20268;-79
2023/03/05 07:06:59;;;;;;;19.53;17.10;;;7.30;92.30;;;;;;10545535;28;20267;-80
2023/03/05 07:12:02;;;;;;;20.50;18.03;;;7.30;92.30;;;;;;10550625;28;20207;-79
2023/03/05 07:17:05;;;;;;;26.67;18.67;;;7.30;92.30;;;;;;10562686;28;20201;-79
2023/03/05 07:22:07;;;;;;;23.93;17.57;;;7.40;92.10;;;;;;10564027;28;20195;-79
2023/03/05 07:27:11;;;;;;;23.33;19.00;;;7.40;92.10;;;;;;10525409;28;20218;-78
2023/03/05 07:32:13;;;;;;;25.20;18.33;;;7.40;92.20;;;;;;10547796;28;20241;-79
2023/03/05 07:37:15;;;;;;;23.23;18.00;;;7.40;91.90;;;;;;10552410;28;20277;-79
2023/03/05 07:42:18;;;;;;;20.60;17.50;;;7.40;91.80;;;;;;10556388;28;20196;-78
2023/03/05 07:47:32;;;;;;;19.27;16.50;;;7.50;91.80;;;;;;10550618;28;20279;-79
2023/03/05 07:52:34;;;;;;;23.70;18.30;;;7.50;91.80;;;;;;10561142;28;20214;-79
2023/03/05 07:57:38;;;;;;;24.27;16.70;;;7.50;91.60;;;;;;10554425;28;20235;-79
2023/03/05 08:02:43;;;;;;;26.43;17.80;;;7.60;91.60;;;;;;10548732;28;20700;-78
2023/03/05 08:07:45;;;;;;;22.33;16.73;;;7.70;91.70;;;;;;10541597;28;20212;-79
2023/03/05 08:12:48;;;;;;;20.70;16.77;;;7.70;91.40;;;;;;10570140;28;20239;-79
2023/03/05 08:17:50;;;;;;;23.37;17.97;;;7.70;91.00;;;;;;10557995;28;20247;-79
2023/03/05 08:22:52;;;;;;;23.73;17.90;;;7.70;91.00;;;;;;10557841;28;20201;-79
2023/03/05 08:27:56;;;;;;;22.27;16.73;;;7.70;91.30;;;;;;10528098;28;20219;-79
2023/03/05 08:32:58;;;;;;;24.63;17.20;;;7.80;91.10;;;;;;10511213;28;20212;-78
2023/03/05 08:38:00;;;;;;;20.97;16.00;;;7.80;91.10;;;;;;10559413;22;20236;-80
2023/03/05 08:43:06;;;;;;;19.20;16.33;;;7.80;91.20;;;;;;10546081;28;20187;-80
2023/03/05 08:48:08;;;;;;;19.40;16.33;;;7.90;91.20;;;;;;10548469;28;20590;-80
2023/03/05 08:53:10;;;;;;;19.53;16.27;;;8.00;90.60;;;;;;10547363;28;20262;-80
2023/03/05 08:58:13;;;;;;;23.80;17.50;;;8.00;90.50;;;;;;10547009;28;20222;-80
2023/03/05 09:03:15;;;;;;;20.87;16.53;;;8.00;90.50;;;;;;10547845;28;20188;-82
2023/03/05 09:08:18;;;;;;;21.37;17.27;;;8.10;90.60;;;;;;10550579;28;20220;-82
2023/03/05 09:13:22;;;;;;;21.67;17.23;;;8.20;90.10;;;;;;10540617;28;20737;-81
2023/03/05 09:18:24;;;;;;;24.30;18.20;;;8.20;90.50;;;;;;10531121;28;20236;-83
2023/03/05 09:23:26;;;;;;;20.67;17.33;;;8.20;90.50;;;;;;10554326;28;20709;-84
2023/03/05 09:28:29;;;;;;;23.27;17.80;;;8.30;90.40;;;;;;10552140;28;20306;-82
2023/03/05 09:33:32;;;;;;;25.03;18.20;;;8.30;89.60;;;;;;10557847;28;20219;-82
2023/03/05 09:38:36;;;;;;;19.80;16.37;;;8.30;90.10;;;;;;10589550;28;20219;-83
2023/03/05 09:43:49;;;;;;;21.97;17.13;;;8.40;89.80;;;;;;10517298;28;20652;-83
2023/03/05 09:48:55;;;;;;;21.90;17.43;;;8.40;89.60;;;;;;10579469;28;20225;-83
2023/03/05 09:54:04;;;;;;;21.60;17.70;;;8.50;89.80;;;;;;10588797;28;20217;-83
2023/03/05 09:59:19;;;;;;;24.00;18.60;;;8.50;89.40;;;;;;10510533;28;20215;-81
2023/03/05 10:04:25;;;;;;;26.83;18.30;;;8.50;89.50;;;;;;10519898;28;20191;-82
2023/03/05 10:09:44;;;;;;;20.03;17.43;;;8.50;89.30;;;;;;10571105;28;20247;-82
2023/03/05 10:14:49;;;;;;;22.20;19.13;;;8.60;89.60;;;;;;10551910;28;20287;-81
2023/03/05 10:20:22;;;;;;;24.23;18.87;;;8.70;88.90;;;;;;10569142;28;20207;-82
2023/03/05 10:25:34;;;;;;;22.60;18.33;;;8.70;88.70;;;;;;10568377;28;20208;-78
2023/03/05 10:30:59;;;;;;;21.23;18.93;;;8.80;88.70;;;;;;10587707;28;20305;-79
2023/03/05 10:36:32;;;;;;;22.77;19.43;;;8.80;88.00;;;;;;10580975;28;20221;-82
2023/03/05 10:41:40;;;;;;;24.37;19.60;;;8.80;87.50;;;;;;10550543;28;20958;-82
2023/03/05 10:46:45;;;;;;;20.60;18.40;;;8.90;87.90;;;;;;10585572;28;20299;-82
2023/03/05 10:51:52;;;;;;;20.70;18.33;;;9.00;88.00;;;;;;10567554;28;20647;-81
2023/03/05 10:57:04;;;;;;;22.13;18.03;;;9.10;87.90;;;;;;10561541;28;20239;-80
2023/03/05 11:02:09;;;;;;;21.87;19.20;;;9.10;87.80;;;;;;10566216;28;20201;-80
2023/03/05 11:07:30;;;;;;;23.43;19.60;;;9.00;86.70;;;;;;10587371;28;20273;-80
2023/03/05 11:12:33;;;;;;;25.37;18.73;;;9.00;86.80;;;;;;10581884;28;20214;-78
2023/03/05 11:17:38;;;;;;;25.70;19.30;;;8.90;87.20;;;;;;10558903;28;20254;-77
2023/03/05 11:22:40;;;;;;;24.83;18.63;;;8.90;87.60;;;;;;10559832;28;20203;-77
2023/03/05 11:27:49;;;;;;;26.90;19.00;;;8.80;87.80;;;;;;10575987;28;20223;-79
2023/03/05 11:33:08;;;;;;;26.73;19.50;;;8.80;88.50;;;;;;10560268;28;20562;-78
2023/03/05 11:38:17;;;;;;;25.23;19.60;;;8.80;88.40;;;;;;10576535;28;20232;-80
2023/03/05 11:43:22;;;;;;;25.53;19.90;;;8.70;88.40;;;;;;10584106;28;20674;-79
2023/03/05 11:48:28;;;;;;;22.23;18.50;;;8.60;88.30;;;;;;10565020;28;20229;-81
2023/03/05 11:53:34;;;;;;;20.50;17.10;;;8.60;88.70;;;;;;10567862;28;20650;-79
2023/03/05 11:58:43;;;;;;;20.03;17.40;;;8.50;88.80;;;;;;10590394;28;20228;-80
2023/03/05 12:03:47;;;;;;;21.63;18.17;;;8.40;89.10;;;;;;10567960;28;20651;-81
2023/03/05 12:08:52;;;;;;;25.10;19.50;;;8.40;88.80;;;;;;10551624;28;20250;-80
2023/03/05 12:13:57;;;;;;;22.73;19.03;;;8.50;87.90;;;;;;10567907;28;20238;-80
2023/03/05 12:19:31;;;;;;;25.00;19.83;;;8.40;88.40;;;;;;10585651;28;20224;-80
2023/03/05 12:24:38;;;;;;;21.63;16.90;;;8.50;88.00;;;;;;10561502;28;20190;-79
2023/03/05 12:29:46;;;;;;;22.13;17.50;;;8.50;87.00;;;;;;10585227;28;20250;-81
2023/03/05 12:34:56;;;;;;;16.50;14.60;;;8.60;86.60;;;;;;10568442;28;20260;-82
2023/03/05 12:40:03;;;;;;;22.17;15.10;;;8.50;85.60;;;;;;10587883;28;20191;-81
2023/03/05 12:45:35;;;;;;;19.90;15.63;;;8.50;85.00;;;;;;10548882;28;20212;-82
2023/03/05 12:50:51;;;;;;;19.77;16.43;;;8.50;84.50;;;;;;10559552;28;20191;-81
2023/03/05 12:56:02;;;;;;;18.83;15.37;;;8.50;84.80;;;;;;10566557;28;20233;-82
2023/03/05 13:01:14;;;;;;;24.90;16.70;;;8.60;85.10;;;;;;10564354;28;20209;-81
2023/03/05 13:06:29;;;;;;;19.13;16.50;;;8.60;85.50;;;;;;10590215;28;20221;-82
2023/03/05 13:11:34;;;;;;;23.83;17.17;;;8.60;86.00;;;;;;10582501;28;20697;-78
2023/03/05 13:16:38;;;;;;;20.37;17.53;;;8.70;86.30;;;;;;10590065;28;20204;-78
2023/03/05 13:21:42;;;;;;;20.60;17.40;;;8.70;86.20;;;;;;10568738;28;20826;-79
2023/03/05 13:26:44;;;;;;;24.83;17.07;;;8.70;86.20;;;;;;10588010;28;20226;-78
2023/03/05 13:31:48;;;;;;;23.23;17.47;;;8.70;86.50;;;;;;10588740;28;20209;-78
2023/03/05 13:36:56;;;;;;;22.53;14.53;;;8.80;85.00;;;;;;10569710;28;20679;-79
2023/03/05 13:42:03;;;;;;;20.80;16.20;;;8.80;85.40;;;;;;10587902;28;20611;-80
2023/03/05 13:47:15;;;;;;;20.57;15.60;;;8.80;84.70;;;;;;10562378;28;20221;-80
2023/03/05 13:52:26;;;;;;;17.60;14.97;;;8.80;85.50;;;;;;10590048;28;20224;-78
2023/03/05 13:57:38;;;;;;;19.00;15.00;;;8.80;86.00;;;;;;10581241;28;20241;-78
2023/03/05 14:02:42;;;;;;;18.23;15.33;;;8.80;85.10;;;;;;10595163;28;20199;-78
2023/03/05 14:07:49;;;;;;;19.13;14.53;;;8.70;85.10;;;;;;10586220;28;20216;-78
2023/03/05 14:12:51;;;;;;;17.47;14.13;;;8.70;84.20;;;;;;10586464;28;20300;-77
2023/03/05 14:18:17;;;;;;;18.70;14.77;;;8.70;84.40;;;;;;10583212;28;20247;-79
2023/03/05 14:23:35;;;;;;;19.60;16.47;;;8.70;84.80;;;;;;10572685;28;20215;-78
2023/03/05 14:28:37;;;;;;;23.03;17.90;;;8.70;85.30;;;;;;10559357;28;20692;-77
2023/03/05 14:33:40;;;;;;;21.10;16.23;;;8.70;85.40;;;;;;10581197;28;20251;-77
2023/03/05 14:38:44;;;;;;;18.73;15.13;;;8.60;86.00;;;;;;10575470;22;20262;-81
2023/03/05 14:43:46;;;;;;;21.50;16.20;;;8.60;85.70;;;;;;10551544;28;20681;-81
2023/03/05 14:48:48;;;;;;;19.10;15.50;;;8.50;85.60;;;;;;10551980;28;20243;-83
2023/03/05 14:53:51;;;;;;;23.53;15.20;;;8.50;86.20;;;;;;10508047;28;20223;-83
2023/03/05 14:58:55;;;;;;;18.57;15.27;;;8.50;86.60;;;;;;10540012;28;20572;-82
2023/03/05 15:04:00;;;;;;;17.90;15.03;;;8.40;86.00;;;;;;10520733;28;20191;-82
2023/03/05 15:09:05;;;;;;;21.37;15.27;;;8.40;86.90;;;;;;10489514;28;20319;-81
2023/03/05 15:14:08;;;;;;;22.13;16.40;;;8.30;86.90;;;;;;10537492;28;20662;-82
2023/03/05 15:19:11;;;;;;;23.50;18.60;;;8.30;87.10;;;;;;10516825;28;20300;-82
2023/03/05 15:24:15;;;;;;;22.17;17.33;;;8.20;87.40;;;;;;10537056;28;20245;-81
2023/03/05 15:29:17;;;;;;;23.60;18.90;;;8.20;88.10;;;;;;10536141;28;20220;-82
2023/03/05 15:34:19;;;;;;;26.43;18.57;;;8.20;88.50;;;;;;10483529;28;20336;-82
2023/03/05 15:39:25;;;;;;;25.90;20.37;;;8.20;88.10;;;;;;10498474;28;20224;-82
2023/03/05 15:44:27;;;;;;;24.60;19.07;;;8.10;88.20;;;;;;10535110;28;20594;-83
2023/03/05 15:49:30;;;;;;;26.50;18.77;;;8.10;88.60;;;;;;10531231;28;20223;-82
2023/03/05 15:54:35;;;;;;;25.43;18.33;;;8.10;88.50;;;;;;10497904;28;20297;-82
2023/03/05 15:59:37;;;;;;;24.03;17.50;;;8.10;88.90;;;;;;10495740;28;20732;-82
2023/03/05 16:04:39;;;;;;;23.20;17.33;;;8.00;87.60;;;;;;10511830;28;20256;-82
2023/03/05 16:09:46;;;;;;;22.30;17.40;;;8.00;88.20;;;;;;10494204;28;20598;-82
2023/03/05 16:14:50;;;;;;;22.83;16.50;;;8.00;88.00;;;;;;10524072;28;20224;-82
2023/03/05 16:19:55;;;;;;;21.20;15.47;;;8.00;87.50;;;;;;10512369;28;20205;-82
2023/03/05 16:25:00;;;;;;;20.30;14.33;;;8.00;87.60;;;;;;10498259;28;20280;-82
2023/03/05 16:30:04;;;;;;;18.93;14.40;;;7.90;87.20;;;;;;10482214;28;20203;-82
2023/03/05 16:35:07;;;;;;;15.07;13.00;;;7.90;86.20;;;;;;10533201;28;20334;-83
2023/03/05 16:40:16;;;;;;;16.13;12.73;;;7.90;86.10;;;;;;10500619;28;20195;-83
2023/03/05 16:45:18;;;;;;;16.90;13.23;;;7.90;86.20;;;;;;10537059;28;20243;-83
2023/03/05 16:50:20;;;;;;;22.93;16.27;;;7.90;85.10;;;;;;10525367;28;20704;-83
2023/03/05 16:55:24;;;;;;;16.03;13.30;;;7.80;85.50;;;;;;10528541;28;20223;-82
2023/03/05 17:00:29;;;;;;;12.33;11.00;;;7.80;85.40;;;;;;10501009;28;20201;-82
2023/03/05 17:05:48;;;;;;;14.77;12.20;;;7.80;84.80;;;;;;10506442;28;20633;-83
2023/03/05 17:10:57;;;;;;;13.80;11.50;;;7.80;84.30;;;;;;10543806;28;20200;-83
2023/03/05 17:16:18;;;;;;;15.47;12.20;;;7.80;84.30;;;;;;10500892;28;20777;-83
2023/03/05 17:21:28;;;;;;;15.17;12.10;;;7.80;84.80;;;;;;10489832;28;20200;-83
2023/03/05 17:26:35;;;;;;;13.37;11.77;;;7.70;85.20;;;;;;10526695;28;20223;-83
2023/03/05 17:31:43;;;;;;;17.93;13.70;;;7.70;85.30;;;;;;10530499;28;20219;-83
2023/03/05 17:36:49;;;;;;;17.17;13.07;;;7.70;84.60;;;;;;10462194;28;20228;-83
2023/03/05 17:42:36;;;;;;;18.63;14.20;;;7.70;85.40;;;;;;10533767;28;20249;-82
2023/03/05 17:47:39;;;;;;;17.27;14.27;;;7.70;86.20;;;;;;10502719;28;20222;-82
2023/03/05 17:58:37;;;;;;;19.40;14.90;;;7.80;86.40;;;;;;10546272;28;20204;-83
2023/03/05 18:03:44;;;;;;;18.87;14.07;;;7.80;86.10;;;;;;10535658;28;20571;-83
2023/03/05 18:08:47;;;;;;;20.30;16.70;;;7.70;86.60;;;;;;10507923;28;20263;-83
2023/03/05 18:13:49;;;;;;;21.70;17.23;;;7.80;86.50;;;;;;10506234;28;20242;-84
2023/03/05 18:18:54;;;;;;;19.93;15.87;;;7.70;87.50;;;;;;10492954;28;20309;-83
2023/03/05 18:23:56;;;;;;;19.70;13.50;;;7.70;88.00;;;;;;10519883;28;20208;-83
2023/03/05 18:28:58;;;;;;;19.73;17.00;;;7.70;87.80;;;;;;10501116;28;20247;-83
2023/03/05 18:34:01;;;;;;;23.77;19.07;;;7.70;88.00;;;;;;10489444;28;20694;-83
2023/03/05 18:39:04;;;;;;;22.60;18.33;;;7.70;89.30;;;;;;10491813;28;20308;-83
2023/03/05 18:44:07;;;;;;;22.47;17.93;;;7.70;89.10;;;;;;10497787;28;20727;-83
2023/03/05 18:49:10;;;;;;;24.90;20.00;;;7.70;89.50;;;;;;10501360;28;20235;-83
2023/03/05 18:54:12;;;;;;;26.20;20.60;;;7.70;89.30;;;;;;10486849;28;20628;-83
2023/03/05 18:59:14;;;;;;;22.47;19.40;;;7.70;89.30;;;;;;10506162;28;20752;-83
2023/03/05 19:04:18;;;;;;;24.13;18.60;;;7.70;89.40;;;;;;10499466;28;20273;-83
2023/03/05 19:09:37;;;;;;;24.63;21.20;;;7.70;89.70;;;;;;10483882;28;20692;-83
2023/03/05 19:14:39;;;;;;;28.03;19.57;;;7.70;89.80;;;;;;10510128;28;20664;-82
2023/03/05 19:19:43;;;;;;;30.50;24.80;;;7.70;89.80;;;;;;10504908;28;20577;-83
2023/03/05 19:24:45;;;;;;;30.13;21.77;;;7.70;89.90;;;;;;10510728;28;20198;-83
2023/03/05 19:29:47;;;;;;;27.20;20.30;;;7.70;89.30;;;;;;10512521;28;20313;-82
2023/03/05 19:34:54;;;;;;;23.20;19.30;;;7.70;89.00;;;;;;10499598;28;20225;-83
2023/03/05 19:39:56;;;;;;;27.83;21.83;;;7.70;89.10;;;;;;10491705;28;20202;-83
2023/03/05 19:45:00;;;;;;;25.37;20.77;;;7.60;88.50;;;;;;10487820;28;20198;-83
2023/03/05 19:50:04;;;;;;;24.67;21.03;;;7.60;89.00;;;;;;10511198;28;20210;-83
2023/03/05 19:55:07;;;;;;;28.60;22.90;;;7.50;89.00;;;;;;10509270;28;20247;-84
2023/03/05 20:00:11;;;;;;;27.67;20.57;;;7.40;89.20;;;;;;10477563;28;20281;-84
2023/03/05 20:05:15;;;;;;;26.37;21.73;;;7.30;89.50;;;;;;10496263;28;20296;-83
2023/03/05 20:10:17;;;;;;;25.03;21.40;;;7.20;89.50;;;;;;10492121;28;20577;-83
2023/03/05 20:15:22;;;;;;;37.87;27.67;;;7.10;90.10;;;;;;10511387;28;20229;-83
2023/03/05 20:20:25;;;;;;;25.10;21.20;;;7.10;90.00;;;;;;10534268;28;20224;-83
2023/03/05 20:25:28;;;;;;;23.67;17.60;;;7.10;90.20;;;;;;10501874;28;20223;-83
2023/03/05 20:30:30;;;;;;;27.47;20.87;;;7.00;90.30;;;;;;10499552;28;20207;-83
2023/03/05 20:35:33;;;;;;;25.60;19.97;;;7.10;90.10;;;;;;10525959;22;20252;-78
2023/03/05 20:40:36;;;;;;;25.80;20.77;;;7.10;90.00;;;;;;10572758;28;20241;-77
2023/03/05 20:45:38;;;;;;;26.10;20.57;;;7.00;90.40;;;;;;10569943;28;20190;-76
2023/03/05 20:50:41;;;;;;;27.73;20.40;;;6.90;90.20;;;;;;10554930;28;20295;-77
2023/03/05 20:55:43;;;;;;;31.67;22.60;;;6.80;90.30;;;;;;10548813;28;20214;-77
2023/03/05 21:00:46;;;;;;;25.50;21.00;;;6.80;90.50;;;;;;10542345;28;20712;-77
2023/03/05 21:05:49;;;;;;;25.73;20.63;;;6.80;90.40;;;;;;10541340;28;20204;-78
2023/03/05 21:10:51;;;;;;;22.00;18.50;;;6.80;90.20;;;;;;10542318;28;20215;-78
2023/03/05 21:15:53;;;;;;;24.63;18.87;;;6.80;89.50;;;;;;10560135;28;20308;-76
2023/03/05 21:20:57;;;;;;;21.30;18.10;;;6.80;90.00;;;;;;10541297;28;20199;-77
2023/03/05 21:25:59;;;;;;;21.37;16.17;;;6.70;90.00;;;;;;10545680;28;20262;-76
2023/03/05 21:31:07;;;;;;;17.93;15.47;;;6.70;89.60;;;;;;10546255;28;20214;-77
2023/03/05 21:36:11;;;;;;;17.97;16.03;;;6.80;89.30;;;;;;10552917;28;20222;-77
2023/03/05 21:41:13;;;;;;;21.27;15.90;;;6.80;89.00;;;;;;10578490;28;20280;-77
2023/03/05 21:46:15;;;;;;;21.37;15.73;;;6.80;89.70;;;;;;10520450;28;20228;-77
2023/03/05 21:51:25;;;;;;;19.73;14.73;;;6.90;89.10;;;;;;10567595;28;20212;-79
2023/03/05 21:56:29;;;;;;;18.53;15.10;;;6.90;88.60;;;;;;10539237;28;20679;-80
2023/03/05 22:01:31;;;;;;;18.50;15.97;;;6.80;88.40;;;;;;10554210;28;20196;-78
2023/03/05 22:06:35;;;;;;;20.93;16.53;;;6.80;89.20;;;;;;10535733;28;20679;-77
2023/03/05 22:11:39;;;;;;;20.83;18.40;;;6.80;87.50;;;;;;10557518;28;20196;-80
2023/03/05 22:16:41;;;;;;;22.43;17.20;;;6.80;89.40;;;;;;10555487;28;20229;-78
2023/03/05 22:21:45;;;;;;;22.20;17.60;;;6.70;89.20;;;;;;10589777;28;20196;-80
2023/03/05 22:26:47;;;;;;;19.40;17.10;;;6.70;89.00;;;;;;10587314;28;20325;-80
2023/03/05 22:31:49;;;;;;;20.77;18.07;;;6.70;88.80;;;;;;10552428;28;20227;-80
2023/03/05 22:36:53;;;;;;;20.77;16.33;;;6.70;89.10;;;;;;10585276;28;20227;-80
2023/03/05 22:41:55;;;;;;;23.03;17.20;;;6.70;89.50;;;;;;10533189;28;20462;-81
2023/03/05 22:46:57;;;;;;;22.17;17.17;;;6.70;89.10;;;;;;10550511;28;20220;-77
2023/03/05 22:52:00;;;;;;;25.00;17.70;;;6.60;89.30;;;;;;10589248;28;20195;-80
2023/03/05 23:02:23;;;;;;;22.07;15.97;;;6.60;89.90;;;;;;10544174;28;20193;-78
2023/03/05 23:07:27;;;;;;;20.80;16.27;;;6.60;90.00;;;;;;10577791;28;20295;-77
2023/03/05 23:12:32;;;;;;;20.77;17.03;;;6.60;89.60;;;;;;10499260;28;20647;-79
2023/03/05 23:17:34;;;;;;;20.77;16.63;;;6.60;89.50;;;;;;10555882;28;20255;-79
2023/03/05 23:22:39;;;;;;;21.00;17.20;;;6.50;89.40;;;;;;10516423;28;20200;-78
2023/03/05 23:27:41;;;;;;;18.73;16.70;;;6.50;89.30;;;;;;10539365;28;20240;-79
2023/03/05 23:32:45;;;;;;;18.57;16.67;;;6.50;88.60;;;;;;10538047;28;20205;-76
2023/03/05 23:37:49;;;;;;;20.20;16.90;;;6.40;89.00;;;;;;10550433;28;20214;-77
2023/03/05 23:42:51;;;;;;;17.43;15.57;;;6.40;89.00;;;;;;10578606;28;20221;-78
2023/03/05 23:47:54;;;;;;;23.83;16.93;;;6.30;89.50;;;;;;10557662;28;20247;-78
2023/03/05 23:52:57;;;;;;;23.00;18.00;;;6.30;89.70;;;;;;10523418;28;20715;-78
2023/03/05 23:58:02;;;;;;;19.10;16.27;;;6.20;89.70;;;;;;10540449;28;20228;-78
